KALM/ALM METAR and TAF weather

Enter ICAO airport designator
Station Type Date Time Source
KALM METAR 2018/04/21 11:35 UTC NOAA

KALM 211135Z AUTO 01008KT 10SM CLR 08/M02 A3009 RMK AO2


Station Type Date Time Source
KALM Decoded METAR 2018/04/21 11:35 UTC NOAA

Alamogordo-White, NM, United States (KALM) 32-50N 105-59W
Apr 21, 2018 - 07:35 AM EDT / 2018.04.21 1135 UTC
Wind: from the N (010 degrees) at 9 MPH (8 KT):0
Visibility: 10 mile(s):0
Sky conditions: clear
Temperature: 46 F (8 C)
Dew Point: 28 F (-2 C)
Relative Humidity: 49%
Pressure (altimeter): 30.09 in. Hg (1018 hPa)
ob: KALM 211135Z AUTO 01008KT 10SM CLR 08/M02 A3009 RMK AO2
cycle: 11

Station Type Date Time Source
KALM TAF UTC NOAA

Error!


Example: see airport list